< < Back
Terminal Aerodrome Forecast


Current Version              Previous Versions:   1  2  3  4  5  6  7  8  9  

Terminal Aerodrome Forecast

867
FTUS42 KCAE 242300
TAFAGS
TAF
KAGS 242333Z 2500/2524 00000KT P6SM SKC
     FM251500 VRB05KT P6SM SKC=



Latest METAR

022
SAUS70 KWBC 250600 RRN
MTRAGS
METAR KAGS 250553Z AUTO 00000KT 10SM CLR 06/05 A3001 RMK AO2 SLP161
T00610050 10139 20056 55005


USA.gov is the U.S. government's official web portal to all federal, state and local government web resources and services.